Time;durP1;ratioP1;P1;durP2;ratioP2;P2;SDS_P1;SDS_P2;PMS_P1;PMS_P2;Temp;Humidity;BMP_temperature;BMP_pressure;BME280_temperature;BME280_humidity;BME280_pressure;Samples;Min_cycle;Max_cycle;Signal;HPM_P1;HPM_P2
2022/08/29 00:02:24;;;;;;;5.15;1.23;;;17.00;99.90;;;;;;5068052;27;20056;-69
2022/08/29 00:04:50;;;;;;;7.45;1.38;;;17.00;99.90;;;;;;5102239;27;20122;-69
2022/08/29 00:07:16;;;;;;;5.13;0.70;;;17.00;99.90;;;;;;5085443;27;20699;-69
2022/08/29 00:09:42;;;;;;;8.07;1.23;;;17.10;99.90;;;;;;5068768;27;20059;-69
2022/08/29 00:12:08;;;;;;;5.65;1.10;;;17.10;99.90;;;;;;5103167;27;20452;-69
2022/08/29 00:14:36;;;;;;;8.65;1.15;;;17.10;99.90;;;;;;5102195;27;20051;-69
2022/08/29 00:17:01;;;;;;;7.15;0.80;;;17.10;99.90;;;;;;5084767;27;20489;-69
2022/08/29 00:19:28;;;;;;;7.05;0.90;;;17.00;99.90;;;;;;5084481;27;20126;-69
2022/08/29 00:21:53;;;;;;;3.53;0.70;;;17.00;99.90;;;;;;5084857;27;20073;-69
2022/08/29 00:24:19;;;;;;;7.53;0.63;;;17.00;99.90;;;;;;5084956;27;20259;-69
2022/08/29 00:26:45;;;;;;;5.40;0.80;;;17.00;99.90;;;;;;5100908;27;20051;-69
2022/08/29 00:29:11;;;;;;;4.10;0.60;;;17.00;99.90;;;;;;5101806;27;20411;-69
2022/08/29 00:31:36;;;;;;;7.68;0.65;;;17.00;99.90;;;;;;5101215;27;20046;-69
2022/08/29 00:34:02;;;;;;;8.45;0.80;;;17.00;99.90;;;;;;5067630;27;20111;-69
2022/08/29 00:36:28;;;;;;;6.13;1.00;;;17.00;99.90;;;;;;5101990;27;20099;-69
2022/08/29 00:38:54;;;;;;;6.28;0.80;;;17.00;99.90;;;;;;5084465;27;20043;-70
2022/08/29 00:41:19;;;;;;;4.38;0.70;;;17.00;99.90;;;;;;5084467;27;20450;-69
2022/08/29 00:43:45;;;;;;;7.82;1.00;;;17.00;99.90;;;;;;5101442;27;20457;-69
2022/08/29 00:46:29;;;;;;;6.40;0.73;;;17.00;99.90;;;;;;5101762;27;20054;-69
2022/08/29 00:48:59;;;;;;;7.90;0.90;;;17.00;99.90;;;;;;5084039;27;20035;-70
2022/08/29 00:51:25;;;;;;;10.85;0.88;;;17.00;99.90;;;;;;5101275;28;20047;-68
2022/08/29 00:53:57;;;;;;;6.85;0.90;;;17.00;99.90;;;;;;5099466;28;20054;-69
2022/08/29 00:56:24;;;;;;;8.43;1.33;;;16.90;99.90;;;;;;5096800;27;20253;-69
2022/08/29 00:58:56;;;;;;;8.40;1.35;;;16.90;99.90;;;;;;5080906;27;20395;-69
2022/08/29 01:01:22;;;;;;;9.10;0.93;;;17.00;99.90;;;;;;5098223;28;20047;-69
2022/08/29 01:03:49;;;;;;;9.90;0.85;;;17.00;99.90;;;;;;5098681;28;20047;-69
2022/08/29 01:06:15;;;;;;;10.23;1.08;;;17.00;99.90;;;;;;5099324;28;20133;-69
2022/08/29 01:08:42;;;;;;;9.48;1.20;;;17.10;99.90;;;;;;5099509;28;20037;-69
2022/08/29 01:13:58;;;;;;;10.95;0.82;;;17.10;99.90;;;;;;5098827;28;20102;-69
2022/08/29 01:16:25;;;;;;;10.25;1.27;;;17.10;99.90;;;;;;5081984;28;20046;-69
2022/08/29 01:18:55;;;;;;;10.25;1.05;;;17.20;99.90;;;;;;5065616;28;20100;-69
2022/08/29 01:21:48;;;;;;;10.88;1.50;;;17.10;99.90;;;;;;5099808;28;20633;-69
2022/08/29 01:24:14;;;;;;;9.05;1.30;;;17.10;99.90;;;;;;5099890;28;20122;-69
2022/08/29 01:26:45;;;;;;;9.85;1.10;;;17.10;99.90;;;;;;5101753;27;20596;-69
2022/08/29 01:29:11;;;;;;;10.63;1.10;;;17.20;99.90;;;;;;5103757;27;20070;-69
2022/08/29 01:31:55;;;;;;;13.43;1.30;;;17.10;99.90;;;;;;5102401;27;20055;-69
2022/08/29 01:34:21;;;;;;;7.47;1.30;;;17.20;99.90;;;;;;5102875;27;20050;-69
2022/08/29 01:36:56;;;;;;;10.20;1.40;;;17.20;99.90;;;;;;5103886;27;20091;-69
2022/08/29 01:39:25;;;;;;;10.98;1.17;;;17.10;99.90;;;;;;5102643;27;20258;-69
2022/08/29 01:41:51;;;;;;;9.38;1.48;;;17.20;99.90;;;;;;5121424;27;20047;-69
2022/08/29 01:44:20;;;;;;;7.28;1.38;;;17.20;99.90;;;;;;5069736;27;20035;-68
2022/08/29 01:46:48;;;;;;;10.60;1.30;;;17.10;99.90;;;;;;5121918;27;20649;-69
2022/08/29 01:49:15;;;;;;;7.28;1.13;;;17.10;99.90;;;;;;5102761;27;20484;-69
2022/08/29 01:51:41;;;;;;;7.35;1.08;;;17.10;99.90;;;;;;5102735;27;20118;-69
2022/08/29 01:54:09;;;;;;;8.85;1.15;;;17.10;99.90;;;;;;5102638;27;20039;-69
2022/08/29 01:56:39;;;;;;;7.20;1.30;;;17.10;99.90;;;;;;5102063;27;20418;-69
2022/08/29 01:59:07;;;;;;;11.45;1.23;;;17.10;99.90;;;;;;5102237;27;20042;-69
2022/08/29 02:01:37;;;;;;;7.43;1.23;;;17.00;99.90;;;;;;5084989;27;20074;-69
2022/08/29 02:04:03;;;;;;;10.35;1.17;;;16.90;99.90;;;;;;5102224;27;20126;-69
2022/08/29 02:06:29;;;;;;;11.50;1.30;;;17.10;99.90;;;;;;5084505;27;20043;-69
2022/08/29 02:08:55;;;;;;;11.13;1.50;;;17.00;99.90;;;;;;5084207;27;20065;-69
2022/08/29 02:11:22;;;;;;;11.10;2.17;;;16.90;99.90;;;;;;5101618;27;20451;-69
2022/08/29 02:13:54;;;;;;;13.70;1.65;;;17.00;99.90;;;;;;5084403;27;20039;-69
2022/08/29 02:16:22;;;;;;;11.27;1.55;;;17.00;99.90;;;;;;5101861;27;20066;-69
2022/08/29 02:18:48;;;;;;;10.85;1.70;;;17.00;99.90;;;;;;5084284;27;20489;-69
2022/08/29 02:21:17;;;;;;;11.93;1.70;;;17.00;99.90;;;;;;5101391;27;20046;-69
2022/08/29 02:23:43;;;;;;;10.95;1.67;;;17.00;99.90;;;;;;5084330;27;20035;-69
2022/08/29 02:26:09;;;;;;;12.68;1.65;;;16.90;99.90;;;;;;5084240;27;20078;-69
2022/08/29 02:28:36;;;;;;;13.20;1.80;;;17.00;99.90;;;;;;5101032;27;20544;-69
2022/08/29 02:31:03;;;;;;;10.65;1.42;;;17.00;99.90;;;;;;5100651;27;20489;-69
2022/08/29 02:33:30;;;;;;;10.70;1.88;;;17.00;99.90;;;;;;5068075;27;20042;-69
2022/08/29 02:35:56;;;;;;;14.38;1.95;;;17.00;99.90;;;;;;5101317;27;20457;-69
2022/08/29 02:38:22;;;;;;;12.40;2.45;;;17.00;99.90;;;;;;5084077;27;20047;-69
2022/08/29 02:40:49;;;;;;;7.88;1.25;;;17.10;99.90;;;;;;5101787;27;20067;-70
2022/08/29 02:43:18;;;;;;;10.23;1.70;;;17.20;99.90;;;;;;5118864;27;20050;-69
2022/08/29 02:45:45;;;;;;;11.43;1.70;;;17.10;99.90;;;;;;5084583;27;20039;-69
2022/08/29 02:48:12;;;;;;;11.82;2.05;;;17.10;99.90;;;;;;5083994;27;20162;-69
2022/08/29 02:50:44;;;;;;;9.57;1.92;;;17.30;99.90;;;;;;5084786;27;20294;-69
2022/08/29 02:53:11;;;;;;;10.18;1.77;;;17.30;99.90;;;;;;5085412;27;20047;-69
2022/08/29 02:55:37;;;;;;;7.40;1.35;;;17.20;99.90;;;;;;5085801;27;20043;-69
2022/08/29 02:58:03;;;;;;;7.18;1.42;;;17.30;99.90;;;;;;5102317;27;20576;-69
2022/08/29 03:00:29;;;;;;;4.72;0.93;;;17.20;99.90;;;;;;5102019;27;20043;-69
2022/08/29 03:02:55;;;;;;;7.43;1.15;;;17.20;99.90;;;;;;5084601;27;20039;-69
2022/08/29 03:05:26;;;;;;;10.73;1.52;;;17.30;99.90;;;;;;5102312;27;20446;-69
2022/08/29 03:07:53;;;;;;;7.30;1.50;;;17.30;99.90;;;;;;5085177;27;20238;-69
2022/08/29 03:10:19;;;;;;;7.00;1.20;;;17.30;99.90;;;;;;5102279;27;20736;-68
2022/08/29 03:12:46;;;;;;;9.52;1.52;;;17.40;99.90;;;;;;5084202;27;20047;-69
2022/08/29 03:15:12;;;;;;;7.70;1.33;;;17.40;99.90;;;;;;5085904;27;20051;-69
2022/08/29 03:17:38;;;;;;;10.13;1.77;;;17.40;99.90;;;;;;5101812;27;20047;-69
2022/08/29 03:20:06;;;;;;;6.93;1.27;;;17.40;99.90;;;;;;5102552;27;20156;-69
2022/08/29 03:22:33;;;;;;;8.20;1.38;;;17.40;99.90;;;;;;5085020;27;20126;-69
2022/08/29 03:25:01;;;;;;;9.63;1.60;;;17.40;99.90;;;;;;5084551;27;21019;-69
2022/08/29 03:27:28;;;;;;;9.15;1.55;;;17.40;99.90;;;;;;5085246;27;20287;-69
2022/08/29 03:29:53;;;;;;;9.88;1.48;;;17.30;99.90;;;;;;5102889;27;20366;-69
2022/08/29 03:32:20;;;;;;;12.52;1.88;;;17.40;99.90;;;;;;5085451;27;20050;-69
2022/08/29 03:34:46;;;;;;;13.80;2.00;;;17.30;99.90;;;;;;5102789;27;20066;-69
2022/08/29 03:37:11;;;;;;;8.38;1.65;;;17.40;99.90;;;;;;5084884;27;20047;-69
2022/08/29 03:39:37;;;;;;;9.05;1.65;;;17.30;99.90;;;;;;5100541;27;20114;-69
2022/08/29 03:42:07;;;;;;;9.45;1.52;;;17.20;99.90;;;;;;5083382;27;20054;-69
2022/08/29 03:44:35;;;;;;;6.38;1.45;;;17.30;99.90;;;;;;5101016;27;20035;-69
2022/08/29 03:47:01;;;;;;;9.57;1.92;;;17.10;99.90;;;;;;5101037;27;20031;-69
2022/08/29 03:49:27;;;;;;;9.00;1.83;;;17.10;99.90;;;;;;5099545;27;20134;-69
2022/08/29 03:51:53;;;;;;;10.77;1.92;;;17.10;99.90;;;;;;5099092;27;20085;-69
2022/08/29 03:54:19;;;;;;;9.20;2.10;;;17.00;99.90;;;;;;5099141;27;20455;-69
2022/08/29 03:56:45;;;;;;;13.25;2.65;;;17.10;99.90;;;;;;5098898;27;20198;-69
2022/08/29 03:59:11;;;;;;;12.98;2.35;;;17.00;99.90;;;;;;5082867;27;20043;-68
2022/08/29 04:01:37;;;;;;;10.55;2.13;;;17.00;99.90;;;;;;5100440;27;20122;-69
2022/08/29 04:04:04;;;;;;;10.27;1.92;;;17.00;99.90;;;;;;5099658;27;20414;-69
2022/08/29 04:06:31;;;;;;;11.70;2.05;;;16.90;99.90;;;;;;5082509;27;20602;-69
2022/08/29 04:08:57;;;;;;;12.15;2.40;;;17.00;99.90;;;;;;5065732;27;20123;-69
2022/08/29 04:11:24;;;;;;;12.27;2.33;;;17.00;99.90;;;;;;5081878;27;20723;-69
2022/08/29 04:13:51;;;;;;;10.50;2.33;;;16.80;99.90;;;;;;5081828;27;20045;-69
2022/08/29 04:16:24;;;;;;;18.58;2.55;;;16.90;99.90;;;;;;5098794;27;20043;-69
2022/08/29 04:18:49;;;;;;;9.63;2.30;;;16.80;99.90;;;;;;5099255;27;20042;-69
2022/08/29 04:21:16;;;;;;;13.05;2.47;;;16.80;99.90;;;;;;5099478;27;20594;-68
2022/08/29 04:23:42;;;;;;;16.02;2.75;;;16.90;99.90;;;;;;5065718;27;20849;-68
2022/08/29 04:26:16;;;;;;;9.93;1.95;;;16.80;99.90;;;;;;5099198;27;20104;-69
2022/08/29 04:28:42;;;;;;;17.40;2.45;;;16.90;99.90;;;;;;5099813;27;20601;-69
2022/08/29 04:31:20;;;;;;;11.38;2.60;;;16.80;99.90;;;;;;5099681;27;20043;-69
2022/08/29 04:33:48;;;;;;;16.70;2.20;;;16.80;99.90;;;;;;5099470;27;20299;-69
2022/08/29 04:36:15;;;;;;;14.13;2.40;;;16.80;99.90;;;;;;5100224;27;20188;-68
2022/08/29 04:38:41;;;;;;;14.45;2.40;;;17.00;99.90;;;;;;5083131;27;20035;-68
2022/08/29 04:41:13;;;;;;;13.75;2.08;;;16.90;99.90;;;;;;5050885;27;20050;-69
2022/08/29 04:43:44;;;;;;;11.20;2.58;;;17.00;99.90;;;;;;5099957;28;20063;-69
2022/08/29 04:46:10;;;;;;;16.67;2.72;;;17.00;99.90;;;;;;5100574;27;20277;-70
2022/08/29 04:48:35;;;;;;;12.88;2.38;;;17.10;99.90;;;;;;5082502;28;20704;-69
2022/08/29 04:51:01;;;;;;;12.25;2.72;;;17.10;99.90;;;;;;5083000;27;20046;-69
2022/08/29 04:53:27;;;;;;;15.00;2.92;;;17.20;99.90;;;;;;5083753;27;20045;-69
2022/08/29 04:56:05;;;;;;;12.75;2.38;;;17.10;99.90;;;;;;5099808;27;20058;-69
2022/08/29 04:58:33;;;;;;;12.48;2.55;;;17.20;99.90;;;;;;5100398;27;20527;-69
2022/08/29 05:00:59;;;;;;;17.50;2.67;;;17.20;99.90;;;;;;5067036;28;20035;-69
2022/08/29 05:03:25;;;;;;;14.93;2.58;;;17.20;99.90;;;;;;5099552;28;20092;-69
2022/08/29 05:06:02;;;;;;;12.60;2.70;;;17.30;99.90;;;;;;5098967;28;20051;-70
2022/08/29 05:08:28;;;;;;;15.45;3.15;;;17.30;99.90;;;;;;5098673;28;20346;-69
2022/08/29 05:10:55;;;;;;;16.33;3.00;;;17.30;99.90;;;;;;5098415;28;20748;-69
2022/08/29 05:13:21;;;;;;;18.48;3.00;;;17.20;99.90;;;;;;5116824;28;20039;-69
2022/08/29 05:15:48;;;;;;;14.90;2.95;;;17.30;99.90;;;;;;5065801;28;20051;-69
2022/08/29 05:18:16;;;;;;;17.48;3.42;;;17.30;99.90;;;;;;5099863;28;20112;-69
2022/08/29 05:20:43;;;;;;;14.98;2.92;;;17.40;99.90;;;;;;5098931;28;20394;-69
2022/08/29 05:23:10;;;;;;;12.23;2.65;;;17.30;99.90;;;;;;5099692;28;20053;-69
2022/08/29 05:25:36;;;;;;;14.88;2.70;;;17.30;99.90;;;;;;5099161;28;20703;-69
2022/08/29 05:28:02;;;;;;;15.52;3.05;;;17.40;99.90;;;;;;5098784;28;20039;-69
2022/08/29 05:30:28;;;;;;;17.90;3.08;;;17.30;99.90;;;;;;5099421;28;20046;-69
2022/08/29 05:32:54;;;;;;;12.75;2.70;;;17.50;99.90;;;;;;5081535;28;20042;-69
2022/08/29 05:35:20;;;;;;;13.68;2.63;;;17.50;99.90;;;;;;5082232;28;20435;-69
2022/08/29 05:37:46;;;;;;;15.05;2.53;;;17.40;99.90;;;;;;5098506;28;20091;-69
2022/08/29 05:40:12;;;;;;;16.00;3.58;;;17.50;99.90;;;;;;5099356;28;20047;-70
2022/08/29 05:42:38;;;;;;;16.90;2.90;;;17.50;99.90;;;;;;5099517;28;20047;-69
2022/08/29 05:45:04;;;;;;;19.13;2.97;;;17.50;99.90;;;;;;5099685;28;20507;-69
2022/08/29 05:47:31;;;;;;;12.85;2.80;;;17.60;99.90;;;;;;5082899;28;20042;-69
2022/08/29 05:49:57;;;;;;;13.98;2.50;;;17.50;99.90;;;;;;5099089;28;20046;-69
2022/08/29 05:52:25;;;;;;;19.88;2.97;;;17.50;99.90;;;;;;5099736;28;20566;-69
2022/08/29 05:54:51;;;;;;;18.38;3.05;;;17.60;99.90;;;;;;5099649;28;20347;-69
2022/08/29 05:57:20;;;;;;;13.40;3.28;;;17.70;99.90;;;;;;5099477;28;20363;-69
2022/08/29 05:59:48;;;;;;;15.10;2.55;;;17.80;99.90;;;;;;5099593;28;20661;-69
2022/08/29 06:02:13;;;;;;;13.90;2.92;;;17.80;99.90;;;;;;5098696;28;20412;-69
2022/08/29 06:04:39;;;;;;;15.85;2.97;;;17.70;99.90;;;;;;5081676;28;20062;-69
2022/08/29 06:07:05;;;;;;;16.77;2.70;;;17.90;99.90;;;;;;5098400;28;20069;-69
2022/08/29 06:09:32;;;;;;;16.52;2.72;;;17.80;99.90;;;;;;5096965;28;20058;-70
2022/08/29 06:11:59;;;;;;;13.07;2.72;;;18.00;99.90;;;;;;5099826;27;20078;-69
2022/08/29 06:14:25;;;;;;;19.70;3.25;;;17.90;99.90;;;;;;5102559;27;20230;-69
2022/08/29 06:16:52;;;;;;;15.40;2.63;;;17.80;99.90;;;;;;5102967;27;20043;-69
2022/08/29 06:19:18;;;;;;;16.20;3.08;;;17.90;99.90;;;;;;5101829;27;20065;-69
2022/08/29 06:21:44;;;;;;;17.23;2.92;;;18.00;99.90;;;;;;5101673;27;20046;-69
2022/08/29 06:24:09;;;;;;;17.73;3.50;;;18.00;99.90;;;;;;5100871;27;20459;-70
2022/08/29 06:26:35;;;;;;;18.55;3.28;;;18.00;99.90;;;;;;5101351;27;20266;-69
2022/08/29 06:29:08;;;;;;;20.40;3.00;;;18.10;99.90;;;;;;5101975;27;20524;-69
2022/08/29 06:31:34;;;;;;;16.23;3.65;;;18.00;99.90;;;;;;5084425;27;20046;-69
2022/08/29 06:34:03;;;;;;;13.27;2.70;;;18.20;99.90;;;;;;5101350;27;20075;-69
2022/08/29 06:36:30;;;;;;;15.38;3.03;;;18.30;99.90;;;;;;5068507;27;20628;-69
2022/08/29 06:39:01;;;;;;;19.73;3.33;;;18.50;99.90;;;;;;5084341;27;20477;-69
2022/08/29 06:41:28;;;;;;;14.88;3.13;;;18.50;99.90;;;;;;5102034;27;20047;-69
2022/08/29 06:43:55;;;;;;;16.65;2.85;;;18.50;99.90;;;;;;5068841;27;20035;-69
2022/08/29 06:46:50;;;;;;;21.83;3.55;;;18.60;99.90;;;;;;5085053;27;20045;-69
2022/08/29 06:49:18;;;;;;;18.48;3.58;;;18.70;99.90;;;;;;5064483;27;20058;-69
2022/08/29 06:51:48;;;;;;;18.70;3.50;;;18.80;99.90;;;;;;5101715;27;20066;-69
2022/08/29 06:54:15;;;;;;;12.93;3.20;;;18.80;99.90;;;;;;5084671;27;20054;-69
2022/08/29 06:56:41;;;;;;;16.45;3.65;;;18.80;99.90;;;;;;5101784;27;20207;-69
2022/08/29 06:59:07;;;;;;;14.90;3.28;;;18.90;99.90;;;;;;5069189;27;20047;-69
2022/08/29 07:01:34;;;;;;;12.95;3.58;;;19.00;99.90;;;;;;5103499;27;20047;-70
2022/08/29 07:04:00;;;;;;;15.60;3.15;;;19.10;99.90;;;;;;5101419;27;20051;-68
2022/08/29 07:06:26;;;;;;;14.73;2.60;;;19.20;99.90;;;;;;5101302;27;20393;-68
2022/08/29 07:08:52;;;;;;;11.43;2.65;;;19.30;99.90;;;;;;5121260;27;20481;-68
2022/08/29 07:11:18;;;;;;;15.55;2.88;;;19.60;99.90;;;;;;5069428;27;20097;-68
2022/08/29 07:13:44;;;;;;;12.48;2.92;;;19.90;99.90;;;;;;5084521;27;20135;-69
2022/08/29 07:16:15;;;;;;;12.45;2.50;;;19.90;99.90;;;;;;5084576;27;20035;-69
2022/08/29 07:18:41;;;;;;;14.20;2.85;;;20.30;99.90;;;;;;5065845;27;20042;-70
2022/08/29 07:21:09;;;;;;;14.30;2.78;;;20.50;99.90;;;;;;5114426;27;20078;-70
2022/08/29 07:23:35;;;;;;;13.75;2.80;;;20.60;99.90;;;;;;5095396;27;20115;-70
2022/08/29 07:26:14;;;;;;;13.70;3.25;;;20.60;99.90;;;;;;5115990;27;20046;-67
2022/08/29 07:28:40;;;;;;;11.75;2.60;;;20.70;99.90;;;;;;5099836;27;20488;-68
2022/08/29 07:31:07;;;;;;;11.90;2.45;;;20.50;99.90;;;;;;5064961;27;20046;-69
2022/08/29 07:33:33;;;;;;;16.15;3.20;;;20.60;99.90;;;;;;5099633;27;20051;-66
2022/08/29 07:35:59;;;;;;;12.48;2.50;;;20.50;99.90;;;;;;5098976;27;20108;-68
2022/08/29 07:38:27;;;;;;;12.85;2.55;;;20.50;99.90;;;;;;5082084;27;20133;-68
2022/08/29 07:41:23;;;;;;;13.15;2.20;;;20.50;99.90;;;;;;5099508;27;20346;-67
2022/08/29 07:43:49;;;;;;;11.80;2.90;;;20.50;99.90;;;;;;5062690;27;20047;-68
2022/08/29 07:46:17;;;;;;;13.93;2.92;;;20.50;99.90;;;;;;5100143;27;20070;-67
2022/08/29 07:48:43;;;;;;;13.35;2.72;;;20.50;99.90;;;;;;5100517;27;20129;-68
2022/08/29 07:51:16;;;;;;;11.75;2.50;;;20.50;99.90;;;;;;5100662;27;20047;-68
2022/08/29 07:53:42;;;;;;;11.88;2.00;;;20.30;99.90;;;;;;5101107;27;20043;-67
2022/08/29 07:56:15;;;;;;;12.15;2.60;;;20.60;99.90;;;;;;5083511;27;20532;-67
2022/08/29 07:58:42;;;;;;;13.25;2.60;;;20.60;99.90;;;;;;5100015;27;20431;-67
2022/08/29 08:01:07;;;;;;;14.13;2.17;;;20.80;99.90;;;;;;5100374;27;20330;-68
2022/08/29 08:03:34;;;;;;;13.40;2.33;;;21.00;99.90;;;;;;5099751;27;20493;-68
2022/08/29 08:06:01;;;;;;;14.52;2.63;;;21.10;99.90;;;;;;5100283;27;20035;-68
2022/08/29 08:08:27;;;;;;;12.68;2.17;;;21.30;99.90;;;;;;5083852;27;20470;-69
2022/08/29 08:10:52;;;;;;;11.32;2.03;;;21.50;99.90;;;;;;5099942;27;20051;-67
2022/08/29 08:13:19;;;;;;;11.35;2.38;;;21.50;99.90;;;;;;5066777;27;20059;-68
2022/08/29 08:15:44;;;;;;;12.18;2.97;;;21.80;99.90;;;;;;5100625;27;20416;-67
2022/08/29 08:18:10;;;;;;;15.27;2.58;;;21.90;99.90;;;;;;5083767;27;20043;-68
2022/08/29 08:20:36;;;;;;;13.10;2.30;;;21.80;99.90;;;;;;5050409;27;20039;-68
2022/08/29 08:23:02;;;;;;;11.43;2.42;;;21.40;99.90;;;;;;5100504;27;20062;-68
2022/08/29 08:25:28;;;;;;;14.13;2.83;;;21.40;99.90;;;;;;5099862;27;20035;-67
2022/08/29 08:27:54;;;;;;;15.52;2.58;;;21.40;99.90;;;;;;5099907;27;20994;-68
2022/08/29 08:30:19;;;;;;;9.40;2.00;;;21.20;99.90;;;;;;5099120;27;20288;-68
2022/08/29 08:32:47;;;;;;;11.93;2.30;;;21.20;99.90;;;;;;5083001;27;20125;-68
2022/08/29 08:35:14;;;;;;;10.93;1.90;;;21.30;99.90;;;;;;5099258;27;20051;-68
2022/08/29 08:37:41;;;;;;;9.90;1.83;;;21.30;99.90;;;;;;5099266;27;20062;-68
2022/08/29 08:40:07;;;;;;;17.85;2.40;;;21.10;99.90;;;;;;5099753;27;20057;-68
2022/08/29 08:42:41;;;;;;;12.20;2.10;;;21.30;99.90;;;;;;5066076;27;20050;-68
2022/08/29 08:45:07;;;;;;;13.20;2.25;;;21.40;99.90;;;;;;5099741;28;20039;-68
2022/08/29 08:47:59;;;;;;;10.98;2.17;;;21.50;99.90;;;;;;5100295;27;20046;-68
2022/08/29 08:50:44;;;;;;;13.02;2.00;;;22.00;99.90;;;;;;5088906;27;20051;-67
2022/08/29 08:53:09;;;;;;;13.05;2.40;;;22.00;99.90;;;;;;5098886;28;20074;-68
2022/08/29 08:55:54;;;;;;;13.20;2.13;;;22.00;99.90;;;;;;5082159;27;20050;-67
2022/08/29 08:58:29;;;;;;;10.00;1.90;;;21.70;99.90;;;;;;5081761;27;20099;-67
2022/08/29 09:00:55;;;;;;;12.32;2.45;;;21.50;99.90;;;;;;5098705;28;20138;-68
2022/08/29 09:03:58;;;;;;;13.20;2.40;;;21.30;99.90;;;;;;5097925;28;20039;-68
2022/08/29 09:06:45;;;;;;;16.85;2.45;;;21.20;99.90;;;;;;5099671;28;20039;-68
2022/08/29 09:09:40;;;;;;;15.05;2.17;;;20.90;99.90;;;;;;5097753;28;20537;-68
2022/08/29 09:12:11;;;;;;;8.70;2.10;;;20.90;99.90;;;;;;5098501;28;20135;-67
2022/08/29 09:14:59;;;;;;;14.70;2.08;;;20.80;99.90;;;;;;5081658;28;20042;-68
2022/08/29 09:17:46;;;;;;;16.00;2.35;;;20.80;99.90;;;;;;5081356;28;20054;-68
2022/08/29 09:20:21;;;;;;;13.18;1.90;;;20.60;99.90;;;;;;5116952;28;20062;-68
2022/08/29 09:23:10;;;;;;;11.48;2.05;;;20.70;99.90;;;;;;5098855;28;20039;-67
2022/08/29 09:25:35;;;;;;;13.60;2.22;;;20.80;99.90;;;;;;5082479;28;20043;-68
2022/08/29 09:28:05;;;;;;;17.25;2.58;;;20.80;99.90;;;;;;5098377;28;20047;-67
2022/08/29 09:30:35;;;;;;;14.73;2.40;;;21.10;99.90;;;;;;5097984;28;20496;-67
2022/08/29 09:33:04;;;;;;;10.32;1.92;;;21.10;99.90;;;;;;5064709;28;20133;-68
2022/08/29 09:35:50;;;;;;;11.38;1.73;;;21.20;99.90;;;;;;5097371;28;20050;-68
2022/08/29 09:38:16;;;;;;;13.88;2.38;;;21.30;99.90;;;;;;5097858;28;20132;-68
2022/08/29 09:40:53;;;;;;;10.57;1.50;;;21.40;99.90;;;;;;5096613;28;20103;-68
2022/08/29 09:43:37;;;;;;;14.23;2.33;;;21.50;99.90;;;;;;5079587;28;20111;-69
2022/08/29 09:46:19;;;;;;;10.38;1.85;;;21.60;99.90;;;;;;5097391;28;20055;-66
2022/08/29 09:49:11;;;;;;;11.45;2.03;;;21.80;99.90;;;;;;5101984;27;20493;-66
2022/08/29 09:51:43;;;;;;;16.33;2.30;;;21.70;99.90;;;;;;5067495;27;20039;-67
2022/08/29 09:54:27;;;;;;;12.52;2.08;;;21.90;99.90;;;;;;5101477;27;20066;-66
2022/08/29 09:57:21;;;;;;;14.40;2.22;;;21.90;99.90;;;;;;5084303;27;20354;-67
2022/08/29 10:00:05;;;;;;;12.85;1.75;;;21.80;99.90;;;;;;5084895;27;20031;-66
2022/08/29 10:02:48;;;;;;;10.15;1.60;;;21.90;99.90;;;;;;5101041;27;20043;-66
2022/08/29 10:05:33;;;;;;;12.05;1.55;;;21.90;99.90;;;;;;5101240;27;20049;-67
2022/08/29 10:08:00;;;;;;;8.60;1.30;;;21.80;99.90;;;;;;5101214;27;20555;-67
2022/08/29 10:10:29;;;;;;;7.53;1.40;;;21.90;99.90;;;;;;5067733;27;20062;-66
2022/08/29 10:13:01;;;;;;;7.10;1.38;;;22.00;99.90;;;;;;5083836;27;20062;-68
2022/08/29 10:15:32;;;;;;;9.63;1.45;;;22.00;99.90;;;;;;5101259;27;20365;-68
2022/08/29 10:18:22;;;;;;;7.90;1.40;;;22.00;99.90;;;;;;5100313;27;20122;-67
2022/08/29 10:21:11;;;;;;;10.18;1.65;;;22.30;99.90;;;;;;5084687;27;20398;-66
2022/08/29 10:24:10;;;;;;;10.07;1.40;;;22.00;99.90;;;;;;5101575;27;20039;-68
2022/08/29 10:26:51;;;;;;;10.30;1.75;;;21.80;99.90;;;;;;5056229;27;20134;-68
2022/08/29 10:29:16;;;;;;;9.85;1.42;;;21.70;99.90;;;;;;5083760;27;20035;-67
2022/08/29 10:32:10;;;;;;;8.25;1.42;;;21.60;99.90;;;;;;5100786;27;20043;-68
2022/08/29 10:34:40;;;;;;;;;;;21.50;99.90;;;;;;5099618;27;20039;-68
2022/08/29 10:37:18;;;;;;;9.73;1.30;;;21.30;99.90;;;;;;5083224;27;20063;-67
2022/08/29 10:39:55;;;;;;;8.57;1.30;;;21.40;99.90;;;;;;5083918;27;20426;-68
2022/08/29 10:42:24;;;;;;;9.10;1.50;;;21.40;99.90;;;;;;5066237;27;20050;-69
2022/08/29 10:45:17;;;;;;;12.30;1.90;;;21.40;99.90;;;;;;5082322;27;20043;-68
2022/08/29 10:47:58;;;;;;;7.63;1.30;;;21.40;99.90;;;;;;5083260;27;20560;-69
2022/08/29 10:50:38;;;;;;;7.13;1.15;;;21.50;99.90;;;;;;5083089;27;20070;-68
2022/08/29 10:53:24;;;;;;;7.50;1.05;;;21.60;99.90;;;;;;5100762;27;20050;-68
2022/08/29 10:55:58;;;;;;;7.45;1.10;;;21.70;99.90;;;;;;5083410;27;20061;-68
2022/08/29 10:58:40;;;;;;;8.68;1.00;;;21.70;99.90;;;;;;5099961;27;20358;-69
2022/08/29 11:01:05;;;;;;;8.85;0.93;;;21.80;99.90;;;;;;5083668;27;20039;-68
2022/08/29 11:04:04;;;;;;;8.05;1.27;;;21.80;99.90;;;;;;5101144;27;20047;-70
2022/08/29 11:06:36;;;;;;;10.07;1.35;;;21.80;99.90;;;;;;5100473;27;20046;-68
2022/08/29 11:09:23;;;;;;;10.38;1.77;;;21.90;99.90;;;;;;5100321;27;20043;-69
2022/08/29 11:12:18;;;;;;;7.40;1.10;;;22.00;99.90;;;;;;5100513;27;20059;-68
2022/08/29 11:14:57;;;;;;;11.63;1.33;;;22.20;99.90;;;;;;5071027;27;20536;-68
2022/08/29 11:17:25;;;;;;;8.13;1.27;;;22.40;99.90;;;;;;5099512;27;20078;-67
2022/08/29 11:20:10;;;;;;;10.00;1.20;;;22.40;99.90;;;;;;5066672;27;20039;-67
2022/08/29 11:23:07;;;;;;;7.97;1.13;;;22.50;99.90;;;;;;5083140;27;20302;-67
2022/08/29 11:25:35;;;;;;;5.50;0.88;;;22.60;99.90;;;;;;5095268;27;20054;-67
2022/08/29 11:28:32;;;;;;;8.63;1.02;;;22.70;99.90;;;;;;5099421;27;20061;-67
2022/08/29 11:31:31;;;;;;;11.57;1.50;;;22.60;99.90;;;;;;5099344;27;20047;-67
2022/08/29 11:34:13;;;;;;;9.18;1.27;;;22.70;99.90;;;;;;5100209;27;20027;-68
2022/08/29 11:37:17;;;;;;;9.30;1.33;;;22.90;99.90;;;;;;5099372;27;20183;-67
2022/08/29 11:39:42;;;;;;;;;;;23.10;99.90;;;;;;5099112;27;20054;-67
2022/08/29 11:42:12;;;;;;;7.25;1.05;;;22.90;99.90;;;;;;5081079;27;20375;-67
2022/08/29 11:44:51;;;;;;;4.88;0.80;;;23.20;99.90;;;;;;5099145;27;20142;-67
2022/08/29 11:47:38;;;;;;;10.70;1.25;;;23.20;99.90;;;;;;5098789;27;20047;-68
2022/08/29 11:50:32;;;;;;;7.90;0.98;;;23.20;99.90;;;;;;5081385;27;20050;-67
2022/08/29 11:53:00;;;;;;;7.65;0.82;;;23.30;99.90;;;;;;5086902;27;20540;-67
2022/08/29 11:55:42;;;;;;;5.68;1.00;;;23.40;99.90;;;;;;5098851;27;20043;-67
2022/08/29 11:58:27;;;;;;;7.28;1.02;;;23.50;99.90;;;;;;5098453;27;20035;-68
2022/08/29 12:00:56;;;;;;;7.35;0.85;;;23.90;99.90;;;;;;5081514;27;20051;-67
2022/08/29 12:03:34;;;;;;;6.28;1.00;;;24.20;99.90;;;;;;5080865;27;20066;-67
2022/08/29 12:06:23;;;;;;;6.85;0.82;;;24.10;99.90;;;;;;5098547;27;20045;-66
2022/08/29 12:09:33;;;;;;;9.88;1.45;;;24.10;99.90;;;;;;5065545;27;20043;-67
2022/08/29 12:12:11;;;;;;;9.68;1.25;;;24.50;99.90;;;;;;5097976;27;20432;-67
2022/08/29 12:14:47;;;;;;;7.50;1.00;;;25.10;99.90;;;;;;5098809;27;20600;-67
2022/08/29 12:17:15;;;;;;;6.55;0.93;;;25.30;99.90;;;;;;5098199;27;20047;-67
2022/08/29 12:19:59;;;;;;;9.85;1.50;;;25.40;99.90;;;;;;5097712;27;20623;-68
2022/08/29 12:22:45;;;;;;;7.78;1.27;;;25.80;99.90;;;;;;5081880;27;20512;-68
2022/08/29 12:25:36;;;;;;;6.10;0.82;;;25.50;99.90;;;;;;5098342;27;20171;-67
2022/08/29 12:28:34;;;;;;;5.22;0.90;;;24.90;99.90;;;;;;5067819;27;20461;-68
2022/08/29 12:31:09;;;;;;;6.05;1.00;;;25.00;99.90;;;;;;5097736;27;20323;-67
2022/08/29 12:33:37;;;;;;;6.05;0.70;;;25.00;99.90;;;;;;5081601;27;20560;-67
2022/08/29 12:36:23;;;;;;;8.60;0.90;;;25.10;99.90;;;;;;5097844;27;20043;-67
2022/08/29 12:39:09;;;;;;;5.90;0.70;;;24.60;99.90;;;;;;5080998;27;20507;-68
2022/08/29 12:41:50;;;;;;;9.45;0.80;;;24.60;99.90;;;;;;5080069;27;20360;-67
2022/08/29 12:44:54;;;;;;;6.43;0.77;;;24.60;99.90;;;;;;5097090;27;20039;-68
2022/08/29 12:47:55;;;;;;;6.43;0.70;;;24.40;99.90;;;;;;5088525;27;20070;-68
2022/08/29 12:50:29;;;;;;;5.03;0.70;;;24.00;99.90;;;;;;5032145;27;20348;-68
2022/08/29 12:53:14;;;;;;;5.72;0.70;;;23.90;99.90;;;;;;5080177;28;20043;-69
2022/08/29 12:55:43;;;;;;;9.02;1.10;;;24.20;99.90;;;;;;5096945;28;20082;-67
2022/08/29 12:58:12;;;;;;;6.00;0.77;;;24.20;99.90;;;;;;5096468;27;20051;-67
2022/08/29 13:00:38;;;;;;;8.80;1.05;;;24.40;99.90;;;;;;5063950;27;20347;-68
2022/08/29 13:03:11;;;;;;;5.70;0.80;;;24.20;99.90;;;;;;5097224;27;20039;-67
2022/08/29 13:05:39;;;;;;;5.65;0.90;;;24.20;99.90;;;;;;5096930;28;20329;-68
2022/08/29 13:08:28;;;;;;;8.00;0.98;;;24.50;99.90;;;;;;5079670;28;20030;-68